createdAt,value
2023-03-17T00:02:24.958Z,13.10
2023-03-17T00:04:54.218Z,10.70
2023-03-17T00:07:23.950Z,7.90
2023-03-17T00:09:53.005Z,9.80
2023-03-17T00:12:24.005Z,9.60
2023-03-17T00:14:53.997Z,9.80
2023-03-17T00:17:23.874Z,12.90
2023-03-17T00:19:54.773Z,10.00
2023-03-17T00:22:24.426Z,8.80
2023-03-17T00:24:53.466Z,11.10
2023-03-17T00:27:24.769Z,8.70
2023-03-17T00:29:54.434Z,9.50
2023-03-17T00:32:24.023Z,10.70
2023-03-17T00:34:53.891Z,10.60
2023-03-17T00:37:23.376Z,10.20
2023-03-17T00:39:53.182Z,8.70
2023-03-17T00:42:23.546Z,7.80
2023-03-17T00:44:53.974Z,9.00
2023-03-17T00:47:23.605Z,8.10
2023-03-17T00:49:53.315Z,10.00
2023-03-17T00:52:23.326Z,10.30
2023-03-17T00:54:53.294Z,8.80
2023-03-17T00:57:24.056Z,10.50
2023-03-17T00:59:54.901Z,12.60
2023-03-17T01:02:24.812Z,10.30
2023-03-17T01:05:05.515Z,14.30
2023-03-17T01:07:38.625Z,12.30
2023-03-17T01:10:17.873Z,11.20
2023-03-17T01:12:47.341Z,9.70
2023-03-17T01:15:19.484Z,9.70
2023-03-17T01:17:52.910Z,11.70
2023-03-17T01:20:26.333Z,7.20
2023-03-17T01:22:56.434Z,8.80
2023-03-17T01:25:29.483Z,9.30
2023-03-17T01:28:03.831Z,8.40
2023-03-17T01:30:37.965Z,9.80
2023-03-17T01:33:10.101Z,10.80
2023-03-17T01:38:10.292Z,9.40
2023-03-17T01:40:47.179Z,9.40
2023-03-17T01:43:20.497Z,10.10
2023-03-17T01:46:32.968Z,10.50
2023-03-17T01:49:06.226Z,10.30
2023-03-17T01:52:01.706Z,8.20
2023-03-17T01:54:42.507Z,9.70
2023-03-17T01:57:27.253Z,10.10
2023-03-17T02:00:16.784Z,11.50
2023-03-17T02:02:50.535Z,8.70
2023-03-17T02:05:31.474Z,8.90
2023-03-17T02:08:00.674Z,10.90
2023-03-17T02:10:31.364Z,6.30
2023-03-17T02:13:05.944Z,8.00
2023-03-17T02:15:51.822Z,8.10
2023-03-17T02:18:24.680Z,8.70
2023-03-17T02:20:57.394Z,9.40
2023-03-17T02:23:27.258Z,10.20
2023-03-17T02:25:57.225Z,9.90
2023-03-17T02:28:31.608Z,8.80
2023-03-17T02:31:01.592Z,8.60
2023-03-17T02:33:30.891Z,10.40
2023-03-17T02:36:00.188Z,8.40
2023-03-17T02:38:29.818Z,7.30
2023-03-17T02:41:02.498Z,12.40
2023-03-17T02:43:33.667Z,8.80
2023-03-17T02:46:06.290Z,10.20
2023-03-17T02:48:37.748Z,7.80
2023-03-17T02:51:07.811Z,8.30
2023-03-17T02:53:37.003Z,9.10
2023-03-17T02:56:07.994Z,8.30
2023-03-17T02:58:39.147Z,10.10
2023-03-17T03:01:10.019Z,9.30
2023-03-17T03:03:39.471Z,9.40
2023-03-17T03:06:09.198Z,8.00
2023-03-17T03:08:38.257Z,7.20
2023-03-17T03:11:07.581Z,8.60
2023-03-17T03:13:38.591Z,7.70
2023-03-17T03:16:09.776Z,8.50
2023-03-17T03:18:40.105Z,7.20
2023-03-17T03:21:11.719Z,9.90
2023-03-17T03:23:42.664Z,10.70
2023-03-17T03:26:12.532Z,11.70
2023-03-17T03:28:42.018Z,9.70
2023-03-17T03:31:14.403Z,7.60
2023-03-17T03:33:44.933Z,8.70
2023-03-17T03:36:14.118Z,8.90
2023-03-17T03:38:43.582Z,9.70
2023-03-17T03:41:13.572Z,7.50
2023-03-17T03:43:42.808Z,8.00
2023-03-17T03:46:12.404Z,8.90
2023-03-17T03:48:43.328Z,7.70
2023-03-17T03:51:12.707Z,6.60
2023-03-17T03:53:42.842Z,8.50
2023-03-17T03:56:12.984Z,12.50
2023-03-17T03:58:42.215Z,14.10
2023-03-17T04:01:11.696Z,10.70
2023-03-17T04:03:41.545Z,11.00
2023-03-17T04:06:11.750Z,13.80
2023-03-17T04:08:42.096Z,14.00
2023-03-17T04:11:12.072Z,11.00
2023-03-17T04:13:42.039Z,26.10
2023-03-17T04:16:12.032Z,23.00
2023-03-17T04:18:42.327Z,11.40
2023-03-17T04:21:11.773Z,11.60
2023-03-17T04:23:41.092Z,11.70
2023-03-17T04:26:14.174Z,18.80
2023-03-17T04:28:46.069Z,24.80
2023-03-17T04:31:16.690Z,20.30
2023-03-17T04:33:46.054Z,16.50
2023-03-17T04:36:22.294Z,19.30
2023-03-17T04:38:53.196Z,19.40
2023-03-17T04:41:23.186Z,11.50
2023-03-17T04:43:57.052Z,10.60
2023-03-17T04:46:27.679Z,8.80
2023-03-17T04:48:58.093Z,8.10
2023-03-17T04:51:47.339Z,11.50
2023-03-17T04:54:17.095Z,13.40
2023-03-17T04:56:47.271Z,16.50
2023-03-17T04:59:16.764Z,13.90
2023-03-17T05:01:55.615Z,13.80
2023-03-17T05:04:31.543Z,9.50
2023-03-17T05:07:05.267Z,8.10
2023-03-17T05:09:38.732Z,8.30
2023-03-17T05:12:10.746Z,7.50
2023-03-17T05:14:48.109Z,7.90
2023-03-17T05:17:17.792Z,6.90
2023-03-17T05:19:51.392Z,8.30
2023-03-17T05:22:21.081Z,8.80
2023-03-17T05:24:54.304Z,9.60
2023-03-17T05:27:23.674Z,9.60
2023-03-17T05:29:55.851Z,11.00
2023-03-17T05:32:26.897Z,11.80
2023-03-17T05:34:57.736Z,9.00
2023-03-17T05:37:33.051Z,8.60
2023-03-17T05:40:05.618Z,11.40
2023-03-17T05:42:43.919Z,17.70
2023-03-17T05:45:13.553Z,8.60
2023-03-17T05:47:46.127Z,8.70
2023-03-17T05:50:16.515Z,10.80
2023-03-17T05:52:45.993Z,8.30
2023-03-17T05:55:15.288Z,11.80
2023-03-17T05:57:45.002Z,9.20
2023-03-17T06:00:17.534Z,8.20
2023-03-17T06:02:47.626Z,10.90
2023-03-17T06:05:19.156Z,8.90
2023-03-17T06:07:55.596Z,13.00
2023-03-17T06:10:27.625Z,10.70
2023-03-17T06:13:16.866Z,10.40
2023-03-17T06:15:55.430Z,12.40
2023-03-17T06:18:25.090Z,10.10
2023-03-17T06:20:55.198Z,8.10
2023-03-17T06:23:26.327Z,8.30
2023-03-17T06:25:56.898Z,10.00
2023-03-17T06:28:26.958Z,11.10
2023-03-17T06:30:57.155Z,11.60
2023-03-17T06:33:27.645Z,7.70
2023-03-17T06:35:59.387Z,8.20
2023-03-17T06:38:30.556Z,8.20
2023-03-17T06:40:59.714Z,10.10
2023-03-17T06:43:29.054Z,10.90
2023-03-17T06:46:01.907Z,9.10
2023-03-17T06:48:31.597Z,9.30
2023-03-17T06:51:04.786Z,5.90
2023-03-17T06:53:34.210Z,10.20
2023-03-17T06:56:06.410Z,9.80
2023-03-17T07:01:30.176Z,8.30
2023-03-17T07:04:02.913Z,8.10
2023-03-17T07:06:34.229Z,8.80
2023-03-17T07:09:07.932Z,8.30
2023-03-17T07:11:50.089Z,9.90
2023-03-17T07:14:21.318Z,8.50
2023-03-17T07:16:50.759Z,8.80
2023-03-17T07:19:20.554Z,8.00
2023-03-17T07:21:49.697Z,8.10
2023-03-17T07:24:19.934Z,8.90
2023-03-17T07:26:53.654Z,6.00
2023-03-17T07:29:24.656Z,8.00
2023-03-17T07:31:55.437Z,6.60
2023-03-17T07:34:26.830Z,6.10
2023-03-17T07:36:56.356Z,5.30
2023-03-17T07:39:29.608Z,7.80
2023-03-17T07:42:02.920Z,7.90
2023-03-17T07:44:33.854Z,5.90
2023-03-17T07:47:03.184Z,5.20
2023-03-17T07:49:41.349Z,5.30
2023-03-17T07:52:13.514Z,5.30
2023-03-17T07:54:43.319Z,7.90
2023-03-17T07:57:14.431Z,5.00
2023-03-17T07:59:43.972Z,5.90
2023-03-17T08:02:17.250Z,5.60
2023-03-17T08:04:47.091Z,5.00
2023-03-17T08:07:17.660Z,7.40
2023-03-17T08:09:53.414Z,4.20
2023-03-17T08:12:28.323Z,3.00
2023-03-17T08:15:07.109Z,4.00
2023-03-17T08:17:43.645Z,4.00
2023-03-17T08:20:22.333Z,6.30
2023-03-17T08:22:52.692Z,6.40
2023-03-17T08:25:22.433Z,6.00
2023-03-17T08:27:54.540Z,6.10
2023-03-17T08:30:25.957Z,4.50
2023-03-17T08:32:55.861Z,4.70
2023-03-17T08:35:25.910Z,3.50
2023-03-17T08:37:58.009Z,5.60
2023-03-17T08:40:28.050Z,6.00
2023-03-17T08:42:58.119Z,4.30
2023-03-17T08:45:27.354Z,5.20
2023-03-17T08:47:58.098Z,4.50
2023-03-17T08:50:28.392Z,6.70
2023-03-17T08:52:57.778Z,6.10
2023-03-17T08:55:29.095Z,5.70
2023-03-17T08:57:58.252Z,4.50
2023-03-17T09:00:29.005Z,5.70
2023-03-17T09:03:00.083Z,5.50
2023-03-17T09:05:30.138Z,4.30
2023-03-17T09:08:01.236Z,5.10
2023-03-17T09:10:31.444Z,6.60
2023-03-17T09:13:04.410Z,7.20
2023-03-17T09:15:39.364Z,5.50
2023-03-17T09:18:11.015Z,5.40
2023-03-17T09:20:40.168Z,4.80
2023-03-17T09:23:21.360Z,4.60
2023-03-17T09:26:05.620Z,6.60
2023-03-17T09:28:37.957Z,5.30
2023-03-17T09:31:18.189Z,6.00
2023-03-17T09:33:48.534Z,6.00
2023-03-17T09:36:18.348Z,4.30
2023-03-17T09:38:47.844Z,6.70
2023-03-17T09:41:58.002Z,4.20
2023-03-17T09:45:13.729Z,6.50
2023-03-17T09:48:14.629Z,4.40
2023-03-17T09:51:12.170Z,5.40
2023-03-17T09:54:02.879Z,4.90
2023-03-17T09:56:38.899Z,3.90
2023-03-17T09:59:38.524Z,3.90
2023-03-17T10:02:32.663Z,4.40
2023-03-17T10:05:28.775Z,4.40
2023-03-17T10:08:33.123Z,6.10
2023-03-17T10:11:15.815Z,2.70
2023-03-17T10:13:55.893Z,2.00
2023-03-17T10:16:31.103Z,3.20
2023-03-17T10:19:10.876Z,2.20
2023-03-17T10:21:50.621Z,3.10
2023-03-17T10:24:22.472Z,3.10
2023-03-17T10:26:58.223Z,2.90
2023-03-17T10:29:28.316Z,2.90
2023-03-17T10:31:59.215Z,3.40
2023-03-17T10:34:37.782Z,3.00
2023-03-17T10:37:18.008Z,5.00
2023-03-17T10:40:00.173Z,4.90
2023-03-17T10:42:36.244Z,3.50
2023-03-17T10:45:18.203Z,6.00
2023-03-17T10:47:52.657Z,2.80
2023-03-17T10:50:38.477Z,3.20
2023-03-17T10:53:28.656Z,2.70
2023-03-17T10:56:08.911Z,2.10
2023-03-17T10:58:49.544Z,2.30
2023-03-17T11:01:30.681Z,2.70
2023-03-17T11:04:02.997Z,1.60
2023-03-17T11:09:11.547Z,3.40
2023-03-17T11:11:47.417Z,3.90
2023-03-17T11:14:30.992Z,2.60
2023-03-17T11:17:21.664Z,2.90
2023-03-17T11:20:32.653Z,2.10
2023-03-17T11:23:33.233Z,3.90
2023-03-17T11:26:18.779Z,5.50
2023-03-17T11:29:02.412Z,3.00
2023-03-17T11:31:45.415Z,4.70
2023-03-17T11:34:26.319Z,2.80
2023-03-17T11:37:26.803Z,3.80
2023-03-17T11:40:19.325Z,3.60
2023-03-17T11:43:32.874Z,2.00
2023-03-17T11:46:13.741Z,3.00
2023-03-17T11:48:55.723Z,3.20
2023-03-17T11:51:45.842Z,3.70
2023-03-17T11:54:47.434Z,2.70
2023-03-17T11:57:49.023Z,3.70
2023-03-17T12:00:29.566Z,2.10
2023-03-17T12:03:29.180Z,2.50
2023-03-17T12:06:06.044Z,4.90
2023-03-17T12:09:03.969Z,4.50
2023-03-17T12:11:43.965Z,3.40
2023-03-17T12:14:30.494Z,2.60
2023-03-17T12:17:33.237Z,2.70
2023-03-17T12:20:19.281Z,3.80
2023-03-17T12:23:31.509Z,5.30
2023-03-17T12:26:15.262Z,6.00
2023-03-17T12:29:00.893Z,4.00
2023-03-17T12:31:49.413Z,2.60
2023-03-17T12:34:46.174Z,4.80
2023-03-17T12:37:18.197Z,5.10
2023-03-17T12:40:01.106Z,3.20
2023-03-17T12:43:09.323Z,4.50
2023-03-17T12:45:48.884Z,2.60
2023-03-17T12:48:24.300Z,4.00
2023-03-17T12:51:41.147Z,3.40
2023-03-17T12:54:28.680Z,5.20
2023-03-17T12:57:21.146Z,6.90
2023-03-17T13:00:17.599Z,6.20
2023-03-17T13:03:09.537Z,4.50
2023-03-17T13:05:39.013Z,3.10
2023-03-17T13:08:14.000Z,4.30
2023-03-17T13:10:49.059Z,6.70
2023-03-17T13:14:14.744Z,4.10
2023-03-17T13:16:48.009Z,3.50
2023-03-17T13:19:23.163Z,4.50
2023-03-17T13:22:21.919Z,5.20
2023-03-17T13:24:53.975Z,4.10
2023-03-17T13:27:49.086Z,3.30
2023-03-17T13:30:27.032Z,4.40
2023-03-17T13:33:10.650Z,5.20
2023-03-17T13:36:01.017Z,5.40
2023-03-17T13:38:39.884Z,3.70
2023-03-17T13:41:42.715Z,7.20
2023-03-17T13:44:37.382Z,3.70
2023-03-17T13:47:34.900Z,4.50
2023-03-17T13:50:14.805Z,4.20
2023-03-17T13:52:57.106Z,3.60
2023-03-17T13:55:39.348Z,6.00
2023-03-17T13:58:11.861Z,6.70
2023-03-17T14:00:51.332Z,4.60
2023-03-17T14:03:49.602Z,3.80
2023-03-17T14:06:22.132Z,3.70
2023-03-17T14:09:20.935Z,4.60
2023-03-17T14:11:51.713Z,4.30
2023-03-17T14:14:33.680Z,5.40
2023-03-17T14:17:26.652Z,3.60
2023-03-17T14:20:11.441Z,6.20
2023-03-17T14:22:45.206Z,4.40
2023-03-17T14:25:20.560Z,3.70
2023-03-17T14:27:56.563Z,4.50
2023-03-17T14:30:31.594Z,6.30
2023-03-17T14:33:23.098Z,4.70
2023-03-17T14:35:58.305Z,4.20
2023-03-17T14:38:32.588Z,3.40
2023-03-17T14:41:06.590Z,3.20
2023-03-17T14:43:36.971Z,4.30
2023-03-17T14:46:39.101Z,4.20
2023-03-17T14:49:21.870Z,4.10
2023-03-17T14:51:59.620Z,4.50
2023-03-17T14:54:34.611Z,3.90
2023-03-17T14:57:16.192Z,3.80
2023-03-17T14:59:59.861Z,4.50
2023-03-17T15:02:38.424Z,2.70
2023-03-17T15:05:29.780Z,3.20
2023-03-17T15:08:00.131Z,3.80
2023-03-17T15:10:44.343Z,7.90
2023-03-17T15:13:14.322Z,3.20
2023-03-17T15:15:47.314Z,2.80
2023-03-17T15:18:21.735Z,3.80
2023-03-17T15:20:50.936Z,3.70
2023-03-17T15:23:23.284Z,4.60
2023-03-17T15:25:57.635Z,4.20
2023-03-17T15:28:31.843Z,3.00
2023-03-17T15:32:10.040Z,3.80
2023-03-17T15:34:39.229Z,5.20
2023-03-17T15:37:20.361Z,4.70
2023-03-17T15:39:51.140Z,6.50
2023-03-17T15:42:31.003Z,4.20
2023-03-17T15:45:03.163Z,3.80
2023-03-17T15:47:37.187Z,6.10
2023-03-17T15:50:22.238Z,10.60
2023-03-17T15:52:56.531Z,4.10
2023-03-17T15:55:31.406Z,7.40
2023-03-17T15:58:07.209Z,5.70
2023-03-17T16:00:46.102Z,6.70
2023-03-17T16:03:38.158Z,9.80
2023-03-17T16:06:22.331Z,13.00
2023-03-17T16:08:52.126Z,8.30
2023-03-17T16:11:33.908Z,6.00
2023-03-17T16:14:09.856Z,8.90
2023-03-17T16:16:46.074Z,9.60
2023-03-17T16:19:23.448Z,7.50
2023-03-17T16:21:55.753Z,4.90
2023-03-17T16:24:28.751Z,7.70
2023-03-17T16:26:58.765Z,6.90
2023-03-17T16:29:34.562Z,7.60
2023-03-17T16:32:03.902Z,6.70
2023-03-17T16:34:42.159Z,10.10
2023-03-17T16:37:24.871Z,9.70
2023-03-17T16:39:54.820Z,7.80
2023-03-17T16:42:24.857Z,11.50
2023-03-17T16:44:55.404Z,13.90
2023-03-17T16:47:25.756Z,9.40
2023-03-17T16:49:55.734Z,6.40
2023-03-17T16:52:26.121Z,6.80
2023-03-17T16:55:01.670Z,7.60
2023-03-17T16:57:33.707Z,9.80
2023-03-17T17:00:11.187Z,10.60
2023-03-17T17:02:41.826Z,9.80
2023-03-17T17:05:21.503Z,8.90
2023-03-17T17:07:52.503Z,11.20
2023-03-17T17:10:23.134Z,13.50
2023-03-17T17:12:55.027Z,15.00
2023-03-17T17:15:24.757Z,16.20
2023-03-17T17:18:04.155Z,16.10
2023-03-17T17:20:38.165Z,10.00
2023-03-17T17:23:13.926Z,8.70
2023-03-17T17:25:48.177Z,7.40
2023-03-17T17:28:23.764Z,7.70
2023-03-17T17:31:17.114Z,6.50
2023-03-17T17:33:55.749Z,7.20
2023-03-17T17:37:17.568Z,10.60
2023-03-17T17:39:53.654Z,9.70
2023-03-17T17:43:07.771Z,10.00
2023-03-17T17:46:02.887Z,9.30
2023-03-17T17:48:33.695Z,11.30
2023-03-17T17:51:44.146Z,10.90
2023-03-17T17:54:19.065Z,13.40
2023-03-17T17:56:48.540Z,11.70
2023-03-17T17:59:19.054Z,15.00
2023-03-17T18:01:49.370Z,14.70
2023-03-17T18:04:19.690Z,21.30
2023-03-17T18:06:49.712Z,18.80
2023-03-17T18:09:29.438Z,19.70
2023-03-17T18:12:00.524Z,17.50
2023-03-17T18:14:32.526Z,17.80
2023-03-17T18:17:25.055Z,20.90
2023-03-17T18:19:55.498Z,21.70
2023-03-17T18:22:25.720Z,22.90
2023-03-17T18:24:55.663Z,16.50
2023-03-17T18:27:42.505Z,17.80
2023-03-17T18:30:20.009Z,19.50
2023-03-17T18:32:53.308Z,21.60
2023-03-17T18:35:25.264Z,18.40
2023-03-17T18:37:58.120Z,21.90
2023-03-17T18:40:34.117Z,17.60
2023-03-17T18:43:07.665Z,22.30
2023-03-17T18:45:49.743Z,23.40
2023-03-17T18:48:27.657Z,21.80
2023-03-17T18:50:57.588Z,22.80
2023-03-17T18:53:47.551Z,28.00
2023-03-17T18:56:47.255Z,23.60
2023-03-17T18:59:16.637Z,22.70
2023-03-17T19:01:55.275Z,22.10
2023-03-17T19:04:31.005Z,25.50
2023-03-17T19:07:26.491Z,20.20
2023-03-17T19:09:57.567Z,25.30
2023-03-17T19:12:28.562Z,25.10
2023-03-17T19:14:59.631Z,26.40
2023-03-17T19:17:29.042Z,21.00
2023-03-17T19:20:00.062Z,20.80
2023-03-17T19:22:29.314Z,20.00
2023-03-17T19:24:59.426Z,18.70
2023-03-17T19:27:32.704Z,20.90
2023-03-17T19:30:07.497Z,24.20
2023-03-17T19:32:37.279Z,22.20
2023-03-17T19:35:14.896Z,24.30
2023-03-17T19:37:45.751Z,24.30
2023-03-17T19:40:15.665Z,20.30
2023-03-17T19:42:46.097Z,17.40
2023-03-17T19:45:18.680Z,22.40
2023-03-17T19:47:48.374Z,16.00
2023-03-17T19:50:18.585Z,17.10
2023-03-17T19:52:53.688Z,19.60
2023-03-17T19:55:36.250Z,17.40
2023-03-17T19:58:08.511Z,16.50
2023-03-17T20:03:51.507Z,14.50
2023-03-17T20:06:34.063Z,17.20
2023-03-17T20:09:23.585Z,12.40
2023-03-17T20:12:04.424Z,16.30
2023-03-17T20:14:53.660Z,17.90
2023-03-17T20:17:43.181Z,15.00
2023-03-17T20:20:28.721Z,17.10
2023-03-17T20:23:07.074Z,15.80
2023-03-17T20:26:11.268Z,16.20
2023-03-17T20:28:52.663Z,15.20
2023-03-17T20:31:43.173Z,12.60
2023-03-17T20:34:13.383Z,14.60
2023-03-17T20:37:05.601Z,14.10
2023-03-17T20:39:38.823Z,15.80
2023-03-17T20:42:15.118Z,16.50
2023-03-17T20:44:53.854Z,13.70
2023-03-17T20:47:24.675Z,15.50
2023-03-17T20:50:01.151Z,13.20
2023-03-17T20:52:36.913Z,17.00
2023-03-17T20:55:17.224Z,17.70
2023-03-17T20:57:54.727Z,17.80
2023-03-17T21:00:28.817Z,18.00
2023-03-17T21:03:30.473Z,19.70
2023-03-17T21:06:00.891Z,16.30
2023-03-17T21:08:50.162Z,16.80
2023-03-17T21:11:31.536Z,15.70
2023-03-17T21:14:09.544Z,13.20
2023-03-17T21:16:45.350Z,14.30
2023-03-17T21:19:19.483Z,12.00
2023-03-17T21:21:57.568Z,15.30
2023-03-17T21:24:40.291Z,15.90
2023-03-17T21:27:16.593Z,18.30
2023-03-17T21:30:34.367Z,18.40
2023-03-17T21:39:48.787Z,14.80
2023-03-17T21:43:12.843Z,15.00
2023-03-17T21:45:51.878Z,15.70
2023-03-17T21:48:25.209Z,15.80
2023-03-17T21:50:56.393Z,18.30
2023-03-17T21:53:49.452Z,15.60
2023-03-17T21:56:23.622Z,20.10
2023-03-17T21:59:08.515Z,18.20
2023-03-17T22:02:23.736Z,18.40
2023-03-17T22:05:11.523Z,15.60
2023-03-17T22:07:48.153Z,14.40
2023-03-17T22:10:20.341Z,21.70
2023-03-17T22:13:40.574Z,15.90
2023-03-17T22:16:32.788Z,12.50
2023-03-17T22:19:10.169Z,14.60
2023-03-17T22:21:56.988Z,16.60
2023-03-17T22:24:27.008Z,16.20
2023-03-17T22:26:56.582Z,16.60
2023-03-17T22:29:30.406Z,16.40
2023-03-17T22:32:03.421Z,13.50
2023-03-17T22:34:33.194Z,13.40
2023-03-17T22:37:08.534Z,14.80
2023-03-17T22:39:38.665Z,12.50
2023-03-17T22:42:09.157Z,12.50
2023-03-17T22:44:43.736Z,18.60
2023-03-17T22:47:13.068Z,22.00
2023-03-17T22:49:42.986Z,22.00
2023-03-17T22:52:14.026Z,23.60
2023-03-17T22:54:44.697Z,25.10
2023-03-17T22:57:15.675Z,23.10
2023-03-17T22:59:54.715Z,26.10
2023-03-17T23:02:29.062Z,34.50
2023-03-17T23:05:04.386Z,26.40
2023-03-17T23:07:47.992Z,22.20
2023-03-17T23:10:25.867Z,28.30
2023-03-17T23:13:11.859Z,26.50
2023-03-17T23:15:45.736Z,24.60
2023-03-17T23:18:20.578Z,28.90
2023-03-17T23:20:53.750Z,23.70
2023-03-17T23:23:30.558Z,29.90
2023-03-17T23:26:03.478Z,28.60
2023-03-17T23:28:37.891Z,28.30
2023-03-17T23:31:11.688Z,26.10
2023-03-17T23:33:44.565Z,26.10
2023-03-17T23:36:18.547Z,28.30
2023-03-17T23:38:49.096Z,24.30
2023-03-17T23:41:20.235Z,25.70
2023-03-17T23:43:54.862Z,27.60
2023-03-17T23:46:26.160Z,27.40
2023-03-17T23:48:56.626Z,32.70
2023-03-17T23:51:27.871Z,31.70
2023-03-17T23:53:58.550Z,25.90
2023-03-17T23:56:32.813Z,25.30
2023-03-17T23:59:04.456Z,31.80
